sensor_id;sensor_type;location;lat;lon;timestamp;pressure;altitude;pressure_sealevel;temperature;humidity
72636;BME280;60679;48.888;15.544;2023-03-20T00:00:37;96172.09;;;6.13;54.52
72636;BME280;60679;48.888;15.544;2023-03-20T00:03:02;96175.59;;;6.07;54.60
72636;BME280;60679;48.888;15.544;2023-03-20T00:05:29;96182.78;;;6.00;54.74
72636;BME280;60679;48.888;15.544;2023-03-20T00:07:56;96184.59;;;5.93;54.90
72636;BME280;60679;48.888;15.544;2023-03-20T00:10:27;96176.13;;;5.89;54.93
72636;BME280;60679;48.888;15.544;2023-03-20T00:12:55;96178.53;;;5.84;55.04
72636;BME280;60679;48.888;15.544;2023-03-20T00:15:25;96184.22;;;5.74;55.23
72636;BME280;60679;48.888;15.544;2023-03-20T00:17:51;96181.19;;;5.56;55.27
72636;BME280;60679;48.888;15.544;2023-03-20T00:20:17;96175.53;;;5.45;55.58
72636;BME280;60679;48.888;15.544;2023-03-20T00:22:43;96175.91;;;5.35;55.86
72636;BME280;60679;48.888;15.544;2023-03-20T00:25:14;96182.84;;;5.30;56.08
72636;BME280;60679;48.888;15.544;2023-03-20T00:27:41;96171.69;;;5.26;55.91
72636;BME280;60679;48.888;15.544;2023-03-20T00:32:45;96172.09;;;5.23;56.07
72636;BME280;60679;48.888;15.544;2023-03-20T00:35:28;96174.38;;;5.26;56.30
72636;BME280;60679;48.888;15.544;2023-03-20T00:37:56;96179.34;;;5.29;56.39
72636;BME280;60679;48.888;15.544;2023-03-20T00:40:27;96169.72;;;5.35;56.30
72636;BME280;60679;48.888;15.544;2023-03-20T00:42:58;96170.94;;;5.32;56.38
72636;BME280;60679;48.888;15.544;2023-03-20T00:45:24;96172.31;;;5.28;56.58
72636;BME280;60679;48.888;15.544;2023-03-20T00:47:50;96164.50;;;5.27;56.64
72636;BME280;60679;48.888;15.544;2023-03-20T00:50:20;96175.22;;;5.27;56.64
72636;BME280;60679;48.888;15.544;2023-03-20T00:52:48;96169.66;;;5.28;56.71
72636;BME280;60679;48.888;15.544;2023-03-20T00:55:15;96183.88;;;5.29;56.87
72636;BME280;60679;48.888;15.544;2023-03-20T00:58:01;96179.34;;;5.29;56.85
72636;BME280;60679;48.888;15.544;2023-03-20T01:02:57;96189.84;;;5.31;56.85
72636;BME280;60679;48.888;15.544;2023-03-20T01:05:24;96183.69;;;5.30;56.82
72636;BME280;60679;48.888;15.544;2023-03-20T01:07:50;96184.50;;;5.31;56.89
72636;BME280;60679;48.888;15.544;2023-03-20T01:10:16;96188.00;;;5.31;56.97
72636;BME280;60679;48.888;15.544;2023-03-20T01:12:43;96185.31;;;5.31;57.01
72636;BME280;60679;48.888;15.544;2023-03-20T01:15:22;96190.13;;;5.36;57.11
72636;BME280;60679;48.888;15.544;2023-03-20T01:17:49;96182.09;;;5.36;57.14
72636;BME280;60679;48.888;15.544;2023-03-20T01:20:18;96184.75;;;5.36;57.06
72636;BME280;60679;48.888;15.544;2023-03-20T01:22:45;96188.44;;;5.35;57.15
72636;BME280;60679;48.888;15.544;2023-03-20T01:25:11;96189.03;;;5.30;57.32
72636;BME280;60679;48.888;15.544;2023-03-20T01:27:37;96187.75;;;5.26;57.29
72636;BME280;60679;48.888;15.544;2023-03-20T01:30:10;96188.59;;;5.27;57.41
72636;BME280;60679;48.888;15.544;2023-03-20T01:32:39;96187.13;;;5.24;57.40
72636;BME280;60679;48.888;15.544;2023-03-20T01:35:06;96184.06;;;5.27;57.71
72636;BME280;60679;48.888;15.544;2023-03-20T01:37:31;96185.97;;;5.33;57.79
72636;BME280;60679;48.888;15.544;2023-03-20T01:39:57;96182.50;;;5.39;57.86
72636;BME280;60679;48.888;15.544;2023-03-20T01:42:22;96175.38;;;5.46;57.76
72636;BME280;60679;48.888;15.544;2023-03-20T01:44:49;96184.09;;;5.55;57.94
72636;BME280;60679;48.888;15.544;2023-03-20T01:47:17;96181.41;;;5.55;57.95
72636;BME280;60679;48.888;15.544;2023-03-20T01:53:07;96183.53;;;5.66;58.28
72636;BME280;60679;48.888;15.544;2023-03-20T01:55:36;96175.97;;;5.69;58.18
72636;BME280;60679;48.888;15.544;2023-03-20T01:58:06;96179.88;;;5.73;58.31
72636;BME280;60679;48.888;15.544;2023-03-20T02:00:34;96178.03;;;5.74;58.38
72636;BME280;60679;48.888;15.544;2023-03-20T02:03:01;96175.81;;;5.77;58.34
72636;BME280;60679;48.888;15.544;2023-03-20T02:05:28;96179.72;;;5.81;58.65
72636;BME280;60679;48.888;15.544;2023-03-20T02:08:29;96179.50;;;5.76;58.60
72636;BME280;60679;48.888;15.544;2023-03-20T02:10:56;96191.66;;;5.79;58.83
72636;BME280;60679;48.888;15.544;2023-03-20T02:13:25;96183.91;;;5.84;58.71
72636;BME280;60679;48.888;15.544;2023-03-20T02:15:58;96184.34;;;5.88;58.68
72636;BME280;60679;48.888;15.544;2023-03-20T02:18:24;96181.25;;;5.91;58.99
72636;BME280;60679;48.888;15.544;2023-03-20T02:24:21;96186.69;;;5.97;58.87
72636;BME280;60679;48.888;15.544;2023-03-20T02:35:46;96186.34;;;6.13;59.25
72636;BME280;60679;48.888;15.544;2023-03-20T02:41:31;96189.06;;;6.20;59.28
72636;BME280;60679;48.888;15.544;2023-03-20T02:52:00;96195.06;;;6.22;59.41
72636;BME280;60679;48.888;15.544;2023-03-20T02:54:43;96191.75;;;6.20;59.70
72636;BME280;60679;48.888;15.544;2023-03-20T03:00:03;96190.88;;;6.13;59.85
72636;BME280;60679;48.888;15.544;2023-03-20T03:02:41;96189.41;;;6.10;59.97
72636;BME280;60679;48.888;15.544;2023-03-20T03:05:23;96193.72;;;6.05;60.17
72636;BME280;60679;48.888;15.544;2023-03-20T03:07:53;96189.97;;;5.99;60.19
72636;BME280;60679;48.888;15.544;2023-03-20T03:10:23;96189.97;;;5.99;60.07
72636;BME280;60679;48.888;15.544;2023-03-20T03:12:52;96193.50;;;6.00;60.35
72636;BME280;60679;48.888;15.544;2023-03-20T03:15:30;96191.66;;;6.00;60.18
72636;BME280;60679;48.888;15.544;2023-03-20T03:17:57;96190.41;;;6.03;60.43
72636;BME280;60679;48.888;15.544;2023-03-20T03:20:29;96188.75;;;6.02;60.40
72636;BME280;60679;48.888;15.544;2023-03-20T03:22:56;96179.66;;;5.96;60.44
72636;BME280;60679;48.888;15.544;2023-03-20T03:25:26;96188.47;;;5.90;60.53
72636;BME280;60679;48.888;15.544;2023-03-20T03:28:38;96189.25;;;5.84;60.54
72636;BME280;60679;48.888;15.544;2023-03-20T03:31:07;96189.63;;;5.81;60.82
72636;BME280;60679;48.888;15.544;2023-03-20T03:33:36;96193.34;;;5.80;60.82
72636;BME280;60679;48.888;15.544;2023-03-20T03:36:35;96185.91;;;5.75;60.87
72636;BME280;60679;48.888;15.544;2023-03-20T03:39:16;96182.78;;;5.72;61.08
72636;BME280;60679;48.888;15.544;2023-03-20T03:41:51;96187.09;;;5.73;61.05
72636;BME280;60679;48.888;15.544;2023-03-20T03:44:22;96186.91;;;5.74;61.08
72636;BME280;60679;48.888;15.544;2023-03-20T03:46:55;96189.00;;;5.79;61.16
72636;BME280;60679;48.888;15.544;2023-03-20T03:49:26;96197.03;;;5.79;61.16
72636;BME280;60679;48.888;15.544;2023-03-20T03:51:56;96191.03;;;5.77;61.16
72636;BME280;60679;48.888;15.544;2023-03-20T03:54:34;96193.09;;;5.75;61.52
72636;BME280;60679;48.888;15.544;2023-03-20T03:57:04;96195.72;;;5.68;61.49
72636;BME280;60679;48.888;15.544;2023-03-20T03:59:40;96196.94;;;5.66;61.50
72636;BME280;60679;48.888;15.544;2023-03-20T04:02:07;96199.81;;;5.64;61.78
72636;BME280;60679;48.888;15.544;2023-03-20T04:04:39;96208.88;;;5.63;61.68
72636;BME280;60679;48.888;15.544;2023-03-20T04:07:07;96207.88;;;5.64;62.00
72636;BME280;60679;48.888;15.544;2023-03-20T04:09:32;96207.03;;;5.64;61.81
72636;BME280;60679;48.888;15.544;2023-03-20T04:11:57;96203.53;;;5.63;61.93
72636;BME280;60679;48.888;15.544;2023-03-20T04:14:23;96206.19;;;5.63;62.01
72636;BME280;60679;48.888;15.544;2023-03-20T04:16:49;96202.91;;;5.61;62.24
72636;BME280;60679;48.888;15.544;2023-03-20T04:19:14;96207.41;;;5.61;61.95
72636;BME280;60679;48.888;15.544;2023-03-20T04:21:40;96210.94;;;5.61;62.14
72636;BME280;60679;48.888;15.544;2023-03-20T04:24:06;96202.31;;;5.66;62.27
72636;BME280;60679;48.888;15.544;2023-03-20T04:26:31;96209.72;;;5.64;62.29
72636;BME280;60679;48.888;15.544;2023-03-20T04:28:57;96205.56;;;5.61;62.25
72636;BME280;60679;48.888;15.544;2023-03-20T04:31:22;96206.13;;;5.57;62.30
72636;BME280;60679;48.888;15.544;2023-03-20T04:33:48;96207.81;;;5.58;62.40
72636;BME280;60679;48.888;15.544;2023-03-20T04:36:13;96213.78;;;5.60;62.70
72636;BME280;60679;48.888;15.544;2023-03-20T04:38:39;96205.50;;;5.55;62.57
72636;BME280;60679;48.888;15.544;2023-03-20T04:41:07;96207.19;;;5.56;62.74
72636;BME280;60679;48.888;15.544;2023-03-20T04:43:33;96209.78;;;5.49;62.70
72636;BME280;60679;48.888;15.544;2023-03-20T04:46:00;96206.81;;;5.38;62.78
72636;BME280;60679;48.888;15.544;2023-03-20T04:48:25;96215.59;;;5.32;62.93
72636;BME280;60679;48.888;15.544;2023-03-20T04:50:52;96212.84;;;5.25;63.17
72636;BME280;60679;48.888;15.544;2023-03-20T04:53:17;96218.34;;;5.17;62.94
72636;BME280;60679;48.888;15.544;2023-03-20T04:55:44;96213.75;;;5.11;63.41
72636;BME280;60679;48.888;15.544;2023-03-20T04:58:10;96216.00;;;5.07;63.30
72636;BME280;60679;48.888;15.544;2023-03-20T05:00:37;96225.25;;;5.05;63.59
72636;BME280;60679;48.888;15.544;2023-03-20T05:03:02;96218.59;;;5.01;63.48
72636;BME280;60679;48.888;15.544;2023-03-20T05:05:28;96215.47;;;4.97;63.60
72636;BME280;60679;48.888;15.544;2023-03-20T05:07:53;96218.16;;;4.97;63.61
72636;BME280;60679;48.888;15.544;2023-03-20T05:10:19;96237.09;;;4.96;63.71
72636;BME280;60679;48.888;15.544;2023-03-20T05:12:46;96236.88;;;4.97;63.85
72636;BME280;60679;48.888;15.544;2023-03-20T05:15:11;96239.19;;;5.00;63.74
72636;BME280;60679;48.888;15.544;2023-03-20T05:17:37;96244.22;;;5.10;63.67
72636;BME280;60679;48.888;15.544;2023-03-20T05:20:03;96251.94;;;5.19;63.71
72636;BME280;60679;48.888;15.544;2023-03-20T05:22:29;96241.53;;;5.31;63.94
72636;BME280;60679;48.888;15.544;2023-03-20T05:24:54;96249.88;;;5.43;63.59
72636;BME280;60679;48.888;15.544;2023-03-20T05:27:20;96248.53;;;5.53;63.62
72636;BME280;60679;48.888;15.544;2023-03-20T05:29:45;96253.41;;;5.64;63.72
72636;BME280;60679;48.888;15.544;2023-03-20T05:32:11;96251.19;;;5.74;63.61
72636;BME280;60679;48.888;15.544;2023-03-20T05:34:37;96257.25;;;5.83;63.60
72636;BME280;60679;48.888;15.544;2023-03-20T05:37:03;96263.31;;;5.92;63.08
72636;BME280;60679;48.888;15.544;2023-03-20T05:39:28;96262.53;;;5.98;63.58
72636;BME280;60679;48.888;15.544;2023-03-20T05:41:53;96272.03;;;6.00;63.73
72636;BME280;60679;48.888;15.544;2023-03-20T05:44:19;96272.50;;;6.04;63.98
72636;BME280;60679;48.888;15.544;2023-03-20T05:46:45;96265.31;;;6.11;63.66
72636;BME280;60679;48.888;15.544;2023-03-20T05:49:10;96273.63;;;6.22;63.69
72636;BME280;60679;48.888;15.544;2023-03-20T05:51:36;96261.91;;;6.30;63.48
72636;BME280;60679;48.888;15.544;2023-03-20T05:54:01;96268.56;;;6.34;63.59
72636;BME280;60679;48.888;15.544;2023-03-20T05:56:27;96266.72;;;6.34;63.62
72636;BME280;60679;48.888;15.544;2023-03-20T05:58:52;96265.25;;;6.32;63.67
72636;BME280;60679;48.888;15.544;2023-03-20T06:01:18;96273.47;;;6.30;63.85
72636;BME280;60679;48.888;15.544;2023-03-20T06:03:46;96267.34;;;6.36;63.68
72636;BME280;60679;48.888;15.544;2023-03-20T06:06:13;96271.28;;;6.41;63.67
72636;BME280;60679;48.888;15.544;2023-03-20T06:08:40;96270.69;;;6.45;63.58
72636;BME280;60679;48.888;15.544;2023-03-20T06:11:06;96269.44;;;6.48;64.00
72636;BME280;60679;48.888;15.544;2023-03-20T06:13:31;96271.13;;;6.49;63.65
72636;BME280;60679;48.888;15.544;2023-03-20T06:15:57;96272.13;;;6.48;63.84
72636;BME280;60679;48.888;15.544;2023-03-20T06:18:22;96277.28;;;6.49;63.83
72636;BME280;60679;48.888;15.544;2023-03-20T06:20:52;96270.50;;;6.53;63.97
72636;BME280;60679;48.888;15.544;2023-03-20T06:23:18;96275.91;;;6.60;63.96
72636;BME280;60679;48.888;15.544;2023-03-20T06:25:44;96276.72;;;6.54;64.28
72636;BME280;60679;48.888;15.544;2023-03-20T06:28:09;96275.66;;;6.48;64.21
72636;BME280;60679;48.888;15.544;2023-03-20T06:30:35;96276.88;;;6.46;64.35
72636;BME280;60679;48.888;15.544;2023-03-20T06:33:00;96283.47;;;6.50;64.20
72636;BME280;60679;48.888;15.544;2023-03-20T06:35:27;96274.59;;;6.49;64.27
72636;BME280;60679;48.888;15.544;2023-03-20T06:37:55;96285.34;;;6.49;64.45
72636;BME280;60679;48.888;15.544;2023-03-20T06:40:21;96288.84;;;6.50;64.08
72636;BME280;60679;48.888;15.544;2023-03-20T06:42:46;96287.22;;;6.55;64.23
72636;BME280;60679;48.888;15.544;2023-03-20T06:45:12;96290.97;;;6.54;64.48
72636;BME280;60679;48.888;15.544;2023-03-20T06:47:38;96290.63;;;6.70;64.16
72636;BME280;60679;48.888;15.544;2023-03-20T06:50:03;96292.78;;;6.94;63.94
72636;BME280;60679;48.888;15.544;2023-03-20T06:52:29;96292.88;;;7.21;63.96
72636;BME280;60679;48.888;15.544;2023-03-20T06:54:54;96295.25;;;7.50;63.89
72636;BME280;60679;48.888;15.544;2023-03-20T06:57:20;96292.16;;;7.79;63.90
72636;BME280;60679;48.888;15.544;2023-03-20T06:59:46;96293.44;;;8.09;63.64
72636;BME280;60679;48.888;15.544;2023-03-20T07:02:12;96285.97;;;8.38;63.15
72636;BME280;60679;48.888;15.544;2023-03-20T07:04:38;96288.81;;;8.62;62.97
72636;BME280;60679;48.888;15.544;2023-03-20T07:07:03;96287.50;;;8.85;63.09
72636;BME280;60679;48.888;15.544;2023-03-20T07:09:29;96287.63;;;9.09;62.63
72636;BME280;60679;48.888;15.544;2023-03-20T07:11:54;96283.78;;;9.30;62.39
72636;BME280;60679;48.888;15.544;2023-03-20T07:14:20;96294.44;;;9.56;62.55
72636;BME280;60679;48.888;15.544;2023-03-20T07:16:47;96287.78;;;9.90;62.08
72636;BME280;60679;48.888;15.544;2023-03-20T07:19:13;96292.34;;;10.21;61.71
72636;BME280;60679;48.888;15.544;2023-03-20T07:21:38;96283.97;;;10.47;61.27
72636;BME280;60679;48.888;15.544;2023-03-20T07:24:04;96282.28;;;10.71;60.96
72636;BME280;60679;48.888;15.544;2023-03-20T07:26:31;96292.88;;;11.09;60.61
72636;BME280;60679;48.888;15.544;2023-03-20T07:28:57;96290.63;;;11.53;60.38
72636;BME280;60679;48.888;15.544;2023-03-20T07:31:24;96294.44;;;11.94;59.87
72636;BME280;60679;48.888;15.544;2023-03-20T07:33:51;96294.75;;;12.27;59.42
72636;BME280;60679;48.888;15.544;2023-03-20T07:36:16;96289.59;;;12.60;58.93
72636;BME280;60679;48.888;15.544;2023-03-20T07:38:42;96286.03;;;12.95;58.78
72636;BME280;60679;48.888;15.544;2023-03-20T07:41:08;96284.56;;;13.27;58.13
72636;BME280;60679;48.888;15.544;2023-03-20T07:43:33;96285.53;;;13.61;57.91
72636;BME280;60679;48.888;15.544;2023-03-20T07:46:06;96283.91;;;14.05;57.61
72636;BME280;60679;48.888;15.544;2023-03-20T07:48:33;96288.06;;;14.40;56.87
72636;BME280;60679;48.888;15.544;2023-03-20T07:50:58;96286.44;;;14.56;56.47
72636;BME280;60679;48.888;15.544;2023-03-20T07:56:12;96292.13;;;15.31;55.79
72636;BME280;60679;48.888;15.544;2023-03-20T07:58:37;96297.13;;;15.61;55.44
72636;BME280;60679;48.888;15.544;2023-03-20T08:01:03;96292.09;;;15.96;55.01
72636;BME280;60679;48.888;15.544;2023-03-20T08:03:28;96296.47;;;16.24;54.40
72636;BME280;60679;48.888;15.544;2023-03-20T08:05:54;96290.72;;;16.52;54.12
72636;BME280;60679;48.888;15.544;2023-03-20T08:08:20;96299.94;;;16.78;53.76
72636;BME280;60679;48.888;15.544;2023-03-20T08:10:45;96305.06;;;17.11;52.98
72636;BME280;60679;48.888;15.544;2023-03-20T08:13:10;96300.78;;;17.25;52.91
72636;BME280;60679;48.888;15.544;2023-03-20T08:15:36;96301.84;;;17.66;52.40
72636;BME280;60679;48.888;15.544;2023-03-20T08:18:01;96300.88;;;18.13;51.70
72636;BME280;60679;48.888;15.544;2023-03-20T08:20:27;96295.22;;;18.65;50.79
72636;BME280;60679;48.888;15.544;2023-03-20T08:22:52;96297.34;;;19.18;50.17
72636;BME280;60679;48.888;15.544;2023-03-20T08:25:17;96303.06;;;19.47;49.65
72636;BME280;60679;48.888;15.544;2023-03-20T08:27:43;96299.72;;;19.60;49.40
72636;BME280;60679;48.888;15.544;2023-03-20T08:30:09;96302.00;;;20.02;48.83
72636;BME280;60679;48.888;15.544;2023-03-20T08:32:34;96300.00;;;20.61;48.27
72636;BME280;60679;48.888;15.544;2023-03-20T08:35:00;96291.34;;;21.12;47.91
72636;BME280;60679;48.888;15.544;2023-03-20T08:37:26;96292.06;;;21.22;47.17
72636;BME280;60679;48.888;15.544;2023-03-20T08:39:52;96296.63;;;21.32;46.72
72636;BME280;60679;48.888;15.544;2023-03-20T08:42:17;96300.38;;;21.41;46.33
72636;BME280;60679;48.888;15.544;2023-03-20T08:44:43;96302.59;;;21.86;45.72
72636;BME280;60679;48.888;15.544;2023-03-20T08:47:09;96303.03;;;21.75;45.51
72636;BME280;60679;48.888;15.544;2023-03-20T08:49:36;96298.63;;;21.98;45.19
72636;BME280;60679;48.888;15.544;2023-03-20T08:52:02;96307.00;;;22.49;43.97
72636;BME280;60679;48.888;15.544;2023-03-20T08:54:27;96303.66;;;22.70;43.35
72636;BME280;60679;48.888;15.544;2023-03-20T08:56:53;96305.53;;;23.07;43.22
72636;BME280;60679;48.888;15.544;2023-03-20T08:59:18;96294.03;;;23.51;42.71
72636;BME280;60679;48.888;15.544;2023-03-20T09:01:44;96305.34;;;24.04;42.34
72636;BME280;60679;48.888;15.544;2023-03-20T09:04:11;96306.19;;;24.18;41.70
72636;BME280;60679;48.888;15.544;2023-03-20T09:06:38;96300.31;;;24.33;41.42
72636;BME280;60679;48.888;15.544;2023-03-20T09:09:04;96313.16;;;24.16;41.27
72636;BME280;60679;48.888;15.544;2023-03-20T09:11:30;96315.47;;;24.22;41.20
72636;BME280;60679;48.888;15.544;2023-03-20T09:13:56;96317.28;;;24.40;40.78
72636;BME280;60679;48.888;15.544;2023-03-20T09:16:22;96302.31;;;25.44;39.86
72636;BME280;60679;48.888;15.544;2023-03-20T09:18:47;96303.66;;;25.86;38.41
72636;BME280;60679;48.888;15.544;2023-03-20T09:21:13;96302.69;;;26.21;38.10
72636;BME280;60679;48.888;15.544;2023-03-20T09:23:38;96299.97;;;26.64;37.38
72636;BME280;60679;48.888;15.544;2023-03-20T09:26:04;96293.00;;;26.83;36.83
72636;BME280;60679;48.888;15.544;2023-03-20T09:28:29;96289.69;;;27.24;36.78
72636;BME280;60679;48.888;15.544;2023-03-20T09:30:57;96297.63;;;28.06;35.13
72636;BME280;60679;48.888;15.544;2023-03-20T09:33:22;96298.59;;;27.56;35.37
72636;BME280;60679;48.888;15.544;2023-03-20T09:35:49;96306.88;;;28.19;34.38
72636;BME280;60679;48.888;15.544;2023-03-20T09:38:14;96306.50;;;29.33;32.82
72636;BME280;60679;48.888;15.544;2023-03-20T09:40:52;96303.84;;;29.24;32.50
72636;BME280;60679;48.888;15.544;2023-03-20T09:43:41;96295.19;;;29.83;31.41
72636;BME280;60679;48.888;15.544;2023-03-20T09:51:45;96300.97;;;29.12;32.05
72636;BME280;60679;48.888;15.544;2023-03-20T09:54:34;96301.53;;;29.26;31.93
72636;BME280;60679;48.888;15.544;2023-03-20T09:57:02;96300.97;;;25.63;35.72
72636;BME280;60679;48.888;15.544;2023-03-20T09:59:29;96308.63;;;23.79;38.29
72636;BME280;60679;48.888;15.544;2023-03-20T10:02:15;96297.31;;;23.34;37.94
72636;BME280;60679;48.888;15.544;2023-03-20T10:04:52;96294.84;;;22.87;38.20
72636;BME280;60679;48.888;15.544;2023-03-20T10:07:19;96289.25;;;28.86;30.20
72636;BME280;60679;48.888;15.544;2023-03-20T10:09:45;96295.91;;;24.46;35.89
72636;BME280;60679;48.888;15.544;2023-03-20T10:12:34;96296.41;;;22.56;38.63
72636;BME280;60679;48.888;15.544;2023-03-20T10:20:32;96300.53;;;23.55;35.16
72636;BME280;60679;48.888;15.544;2023-03-20T10:23:06;96284.75;;;22.82;36.22
72636;BME280;60679;48.888;15.544;2023-03-20T10:25:44;96291.03;;;23.02;35.67
72636;BME280;60679;48.888;15.544;2023-03-20T10:28:24;96288.81;;;27.49;30.17
72636;BME280;60679;48.888;15.544;2023-03-20T10:39:21;96273.63;;;36.77;22.60
72636;BME280;60679;48.888;15.544;2023-03-20T10:41:55;96271.25;;;29.25;29.87
72636;BME280;60679;48.888;15.544;2023-03-20T10:44:42;96265.75;;;32.59;25.55
72636;BME280;60679;48.888;15.544;2023-03-20T10:47:13;96261.41;;;36.52;22.47
72636;BME280;60679;48.888;15.544;2023-03-20T10:49:46;96262.91;;;38.53;20.81
72636;BME280;60679;48.888;15.544;2023-03-20T10:52:16;96257.41;;;36.09;23.01
72636;BME280;60679;48.888;15.544;2023-03-20T10:54:45;96257.03;;;31.67;27.24
72636;BME280;60679;48.888;15.544;2023-03-20T10:57:21;96252.13;;;30.53;27.35
72636;BME280;60679;48.888;15.544;2023-03-20T10:59:49;96255.66;;;29.44;28.58
72636;BME280;60679;48.888;15.544;2023-03-20T11:02:16;96250.69;;;25.61;32.94
72636;BME280;60679;48.888;15.544;2023-03-20T11:04:42;96249.28;;;24.66;33.75
72636;BME280;60679;48.888;15.544;2023-03-20T11:12:35;96231.38;;;32.78;23.65
72636;BME280;60679;48.888;15.544;2023-03-20T11:15:13;96232.56;;;27.78;29.65
72636;BME280;60679;48.888;15.544;2023-03-20T11:17:38;96220.25;;;35.89;21.39
72636;BME280;60679;48.888;15.544;2023-03-20T11:20:04;96231.81;;;31.63;25.09
72636;BME280;60679;48.888;15.544;2023-03-20T11:22:30;96230.72;;;26.64;30.57
72636;BME280;60679;48.888;15.544;2023-03-20T11:24:58;96241.81;;;23.82;33.52
72636;BME280;60679;48.888;15.544;2023-03-20T11:27:27;96224.38;;;30.44;25.39
72636;BME280;60679;48.888;15.544;2023-03-20T11:29:54;96228.03;;;31.00;25.27
72636;BME280;60679;48.888;15.544;2023-03-20T11:32:31;96211.97;;;35.63;20.96
72636;BME280;60679;48.888;15.544;2023-03-20T11:35:27;96222.97;;;38.51;19.50
72636;BME280;60679;48.888;15.544;2023-03-20T11:38:07;96212.59;;;33.36;24.04
72636;BME280;60679;48.888;15.544;2023-03-20T11:40:34;96212.81;;;33.27;23.24
72636;BME280;60679;48.888;15.544;2023-03-20T11:43:02;96214.84;;;33.07;23.59
72636;BME280;60679;48.888;15.544;2023-03-20T11:45:36;96216.25;;;30.15;26.12
72636;BME280;60679;48.888;15.544;2023-03-20T11:48:03;96213.13;;;36.50;20.21
72636;BME280;60679;48.888;15.544;2023-03-20T11:50:35;96207.28;;;38.33;18.98
72636;BME280;60679;48.888;15.544;2023-03-20T11:56:01;96211.03;;;30.38;26.70
72636;BME280;60679;48.888;15.544;2023-03-20T11:58:28;96203.31;;;26.79;29.72
72636;BME280;60679;48.888;15.544;2023-03-20T12:00:54;96201.41;;;32.43;23.16
72636;BME280;60679;48.888;15.544;2023-03-20T12:03:40;96196.34;;;38.31;18.92
72636;BME280;60679;48.888;15.544;2023-03-20T12:06:14;96188.69;;;42.38;16.61
72636;BME280;60679;48.888;15.544;2023-03-20T12:08:40;96188.28;;;39.55;18.59
72636;BME280;60679;48.888;15.544;2023-03-20T12:11:36;96196.34;;;38.31;19.93
72636;BME280;60679;48.888;15.544;2023-03-20T12:14:07;96189.09;;;36.63;20.70
72636;BME280;60679;48.888;15.544;2023-03-20T12:16:36;96190.31;;;36.07;20.66
72636;BME280;60679;48.888;15.544;2023-03-20T12:19:12;96193.13;;;37.83;18.57
72636;BME280;60679;48.888;15.544;2023-03-20T12:21:46;96184.44;;;41.46;15.98
72636;BME280;60679;48.888;15.544;2023-03-20T12:24:23;96189.41;;;35.19;20.94
72636;BME280;60679;48.888;15.544;2023-03-20T12:26:57;96183.31;;;31.71;23.89
72636;BME280;60679;48.888;15.544;2023-03-20T12:29:29;96182.13;;;30.98;23.67
72636;BME280;60679;48.888;15.544;2023-03-20T12:34:52;96175.56;;;33.68;20.97
72636;BME280;60679;48.888;15.544;2023-03-20T12:37:20;96171.66;;;38.88;17.31
72636;BME280;60679;48.888;15.544;2023-03-20T12:45:00;96172.50;;;40.61;16.09
72636;BME280;60679;48.888;15.544;2023-03-20T12:50:30;96162.75;;;34.72;20.69
72636;BME280;60679;48.888;15.544;2023-03-20T12:53:03;96165.84;;;31.00;23.51
72636;BME280;60679;48.888;15.544;2023-03-20T13:01:18;96153.63;;;30.37;22.94
72636;BME280;60679;48.888;15.544;2023-03-20T13:06:58;96164.88;;;25.05;27.96
72636;BME280;60679;48.888;15.544;2023-03-20T13:12:28;96158.50;;;25.04;27.64
72636;BME280;60679;48.888;15.544;2023-03-20T13:15:18;96159.19;;;25.10;27.31
72636;BME280;60679;48.888;15.544;2023-03-20T13:18:11;96155.63;;;25.57;26.97
72636;BME280;60679;48.888;15.544;2023-03-20T13:20:50;96160.03;;;25.50;27.17
72636;BME280;60679;48.888;15.544;2023-03-20T13:28:53;96145.28;;;36.76;18.03
72636;BME280;60679;48.888;15.544;2023-03-20T13:39:43;96143.91;;;28.44;24.55
72636;BME280;60679;48.888;15.544;2023-03-20T13:42:17;96134.59;;;29.38;23.30
72636;BME280;60679;48.888;15.544;2023-03-20T13:44:46;96138.97;;;33.58;19.95
72636;BME280;60679;48.888;15.544;2023-03-20T13:47:15;96137.88;;;38.32;16.62
72636;BME280;60679;48.888;15.544;2023-03-20T13:52:38;96143.31;;;28.18;25.14
72636;BME280;60679;48.888;15.544;2023-03-20T13:55:27;96131.88;;;27.31;25.09
72636;BME280;60679;48.888;15.544;2023-03-20T14:01:09;96130.66;;;37.42;17.17
72636;BME280;60679;48.888;15.544;2023-03-20T14:03:39;96128.34;;;40.26;15.17
72636;BME280;60679;48.888;15.544;2023-03-20T14:08:55;96134.19;;;31.70;22.09
72636;BME280;60679;48.888;15.544;2023-03-20T14:13:51;96132.97;;;36.26;17.66
72636;BME280;60679;48.888;15.544;2023-03-20T14:16:19;96130.63;;;33.39;19.75
72636;BME280;60679;48.888;15.544;2023-03-20T14:18:50;96134.06;;;28.46;23.62
72636;BME280;60679;48.888;15.544;2023-03-20T14:21:28;96190.56;;;25.45;25.76
72636;BME280;60679;48.888;15.544;2023-03-20T14:23:59;96145.84;;;23.43;27.38
72636;BME280;60679;48.888;15.544;2023-03-20T14:26:29;96134.78;;;22.42;27.68
72636;BME280;60679;48.888;15.544;2023-03-20T14:31:32;96145.00;;;20.83;29.04
72636;BME280;60679;48.888;15.544;2023-03-20T14:41:59;96148.34;;;19.29;30.53
72636;BME280;60679;48.888;15.544;2023-03-20T14:44:44;96154.59;;;18.76;31.04
72636;BME280;60679;48.888;15.544;2023-03-20T14:47:24;96147.50;;;18.44;31.31
72636;BME280;60679;48.888;15.544;2023-03-20T14:49:55;96148.09;;;18.16;31.65
72636;BME280;60679;48.888;15.544;2023-03-20T14:52:44;96147.53;;;17.69;32.35
72636;BME280;60679;48.888;15.544;2023-03-20T14:57:42;96146.53;;;17.13;32.97
72636;BME280;60679;48.888;15.544;2023-03-20T15:00:20;96151.63;;;16.94;33.33
72636;BME280;60679;48.888;15.544;2023-03-20T15:03:01;96145.34;;;16.89;33.61
72636;BME280;60679;48.888;15.544;2023-03-20T15:05:34;96157.28;;;16.78;33.67
72636;BME280;60679;48.888;15.544;2023-03-20T15:08:06;96161.59;;;16.68;34.01
72636;BME280;60679;48.888;15.544;2023-03-20T15:10:34;96156.19;;;16.73;34.04
72636;BME280;60679;48.888;15.544;2023-03-20T15:13:04;96152.97;;;16.82;34.06